sensor_id;sensor_type;location;lat;lon;timestamp;pressure;altitude;pressure_sealevel;temperature;humidity
6423;BME280;3244;42.708;23.288;2023-06-22T00:01:00;95437.22;;;19.85;85.17
6423;BME280;3244;42.708;23.288;2023-06-22T00:03:26;95436.28;;;19.86;85.40
6423;BME280;3244;42.708;23.288;2023-06-22T00:05:53;95434.84;;;19.82;85.43
6423;BME280;3244;42.708;23.288;2023-06-22T00:08:20;95441.13;;;19.78;85.89
6423;BME280;3244;42.708;23.288;2023-06-22T00:10:47;95438.00;;;19.73;86.00
6423;BME280;3244;42.708;23.288;2023-06-22T00:13:15;95438.41;;;19.66;86.58
6423;BME280;3244;42.708;23.288;2023-06-22T00:15:42;95434.34;;;19.62;87.07
6423;BME280;3244;42.708;23.288;2023-06-22T00:18:10;95436.19;;;19.60;86.96
6423;BME280;3244;42.708;23.288;2023-06-22T00:20:37;95437.63;;;19.52;87.65
6423;BME280;3244;42.708;23.288;2023-06-22T00:23:05;95415.84;;;19.56;87.29
6423;BME280;3244;42.708;23.288;2023-06-22T00:25:33;95419.72;;;19.63;87.15
6423;BME280;3244;42.708;23.288;2023-06-22T00:28:01;95412.16;;;19.60;87.43
6423;BME280;3244;42.708;23.288;2023-06-22T00:30:30;95409.88;;;19.55;87.89
6423;BME280;3244;42.708;23.288;2023-06-22T00:32:58;95408.25;;;19.54;88.22
6423;BME280;3244;42.708;23.288;2023-06-22T00:35:25;95419.06;;;19.59;87.68
6423;BME280;3244;42.708;23.288;2023-06-22T00:37:54;95416.41;;;19.61;87.53
6423;BME280;3244;42.708;23.288;2023-06-22T00:40:26;95412.00;;;19.49;88.14
6423;BME280;3244;42.708;23.288;2023-06-22T00:42:53;95407.13;;;19.44;88.11
6423;BME280;3244;42.708;23.288;2023-06-22T00:45:20;95417.81;;;19.38;88.33
6423;BME280;3244;42.708;23.288;2023-06-22T00:47:48;95417.25;;;19.47;87.89
6423;BME280;3244;42.708;23.288;2023-06-22T00:50:19;95408.78;;;19.45;87.79
6423;BME280;3244;42.708;23.288;2023-06-22T00:52:48;95416.16;;;19.51;87.43
6423;BME280;3244;42.708;23.288;2023-06-22T00:55:18;95416.31;;;19.62;86.65
6423;BME280;3244;42.708;23.288;2023-06-22T00:57:45;95421.13;;;19.54;86.41
6423;BME280;3244;42.708;23.288;2023-06-22T01:00:12;95431.31;;;19.56;86.68
6423;BME280;3244;42.708;23.288;2023-06-22T01:02:42;95427.00;;;19.56;86.50
6423;BME280;3244;42.708;23.288;2023-06-22T01:05:12;95437.72;;;19.50;86.56
6423;BME280;3244;42.708;23.288;2023-06-22T01:07:43;95427.56;;;19.47;86.75
6423;BME280;3244;42.708;23.288;2023-06-22T01:10:16;95423.81;;;19.38;86.93
6423;BME280;3244;42.708;23.288;2023-06-22T01:12:49;95426.72;;;19.47;86.82
6423;BME280;3244;42.708;23.288;2023-06-22T01:15:23;95430.69;;;19.38;87.51
6423;BME280;3244;42.708;23.288;2023-06-22T01:17:52;95423.06;;;19.36;87.21
6423;BME280;3244;42.708;23.288;2023-06-22T01:20:21;95419.22;;;19.29;87.44
6423;BME280;3244;42.708;23.288;2023-06-22T01:23:02;95420.25;;;19.27;86.96
6423;BME280;3244;42.708;23.288;2023-06-22T01:25:36;95423.56;;;19.29;87.35
6423;BME280;3244;42.708;23.288;2023-06-22T01:28:24;95428.50;;;19.32;86.81
6423;BME280;3244;42.708;23.288;2023-06-22T01:30:55;95434.78;;;19.28;87.24
6423;BME280;3244;42.708;23.288;2023-06-22T01:33:33;95444.81;;;19.18;87.77
6423;BME280;3244;42.708;23.288;2023-06-22T01:36:01;95448.59;;;19.13;88.47
6423;BME280;3244;42.708;23.288;2023-06-22T01:38:29;95442.25;;;19.18;87.93
6423;BME280;3244;42.708;23.288;2023-06-22T01:40:57;95443.44;;;19.13;87.88
6423;BME280;3244;42.708;23.288;2023-06-22T01:43:25;95453.56;;;19.16;88.41
6423;BME280;3244;42.708;23.288;2023-06-22T01:45:55;95444.00;;;19.18;88.22
6423;BME280;3244;42.708;23.288;2023-06-22T01:48:22;95435.16;;;19.08;88.69
6423;BME280;3244;42.708;23.288;2023-06-22T01:50:51;95445.69;;;19.05;88.37
6423;BME280;3244;42.708;23.288;2023-06-22T01:53:18;95444.03;;;19.03;89.10
6423;BME280;3244;42.708;23.288;2023-06-22T01:55:45;95444.56;;;18.94;89.39
6423;BME280;3244;42.708;23.288;2023-06-22T01:58:12;95452.47;;;18.91;89.73
6423;BME280;3244;42.708;23.288;2023-06-22T02:00:41;95453.38;;;18.90;89.56
6423;BME280;3244;42.708;23.288;2023-06-22T02:03:15;95459.84;;;18.97;89.27
6423;BME280;3244;42.708;23.288;2023-06-22T02:05:50;95468.03;;;19.04;88.57
6423;BME280;3244;42.708;23.288;2023-06-22T02:08:20;95468.03;;;19.04;88.09
6423;BME280;3244;42.708;23.288;2023-06-22T02:10:49;95468.75;;;19.06;87.58
6423;BME280;3244;42.708;23.288;2023-06-22T02:13:17;95469.19;;;19.13;86.90
6423;BME280;3244;42.708;23.288;2023-06-22T02:15:45;95464.78;;;19.15;86.74
6423;BME280;3244;42.708;23.288;2023-06-22T02:18:14;95462.22;;;19.15;86.08
6423;BME280;3244;42.708;23.288;2023-06-22T02:20:40;95457.00;;;19.02;86.62
6423;BME280;3244;42.708;23.288;2023-06-22T02:23:07;95460.19;;;18.91;87.24
6423;BME280;3244;42.708;23.288;2023-06-22T02:25:35;95457.47;;;18.80;87.79
6423;BME280;3244;42.708;23.288;2023-06-22T02:28:02;95450.44;;;18.82;87.71
6423;BME280;3244;42.708;23.288;2023-06-22T02:30:29;95447.34;;;18.77;87.91
6423;BME280;3244;42.708;23.288;2023-06-22T02:32:55;95440.53;;;18.76;87.90
6423;BME280;3244;42.708;23.288;2023-06-22T02:35:26;95446.22;;;18.67;88.21
6423;BME280;3244;42.708;23.288;2023-06-22T02:37:57;95446.56;;;18.61;88.70
6423;BME280;3244;42.708;23.288;2023-06-22T02:40:24;95453.38;;;18.62;88.73
6423;BME280;3244;42.708;23.288;2023-06-22T02:42:51;95446.84;;;18.71;88.82
6423;BME280;3244;42.708;23.288;2023-06-22T02:45:18;95442.91;;;18.65;88.64
6423;BME280;3244;42.708;23.288;2023-06-22T02:47:44;95453.19;;;18.65;88.48
6423;BME280;3244;42.708;23.288;2023-06-22T02:50:13;95452.38;;;18.64;88.13
6423;BME280;3244;42.708;23.288;2023-06-22T02:52:41;95450.88;;;18.60;88.46
6423;BME280;3244;42.708;23.288;2023-06-22T02:55:08;95452.38;;;18.64;88.32
6423;BME280;3244;42.708;23.288;2023-06-22T02:57:35;95455.16;;;18.76;87.49
6423;BME280;3244;42.708;23.288;2023-06-22T03:00:03;95457.81;;;18.74;87.22
6423;BME280;3244;42.708;23.288;2023-06-22T03:02:41;95454.97;;;18.79;87.10
6423;BME280;3244;42.708;23.288;2023-06-22T03:05:08;95452.19;;;18.82;86.79
6423;BME280;3244;42.708;23.288;2023-06-22T03:07:38;95455.22;;;18.88;86.88
6423;BME280;3244;42.708;23.288;2023-06-22T03:10:07;95466.00;;;18.95;86.60
6423;BME280;3244;42.708;23.288;2023-06-22T03:12:35;95462.22;;;19.00;86.17
6423;BME280;3244;42.708;23.288;2023-06-22T03:15:01;95478.50;;;19.15;85.94
6423;BME280;3244;42.708;23.288;2023-06-22T03:17:28;95474.63;;;19.22;84.88
6423;BME280;3244;42.708;23.288;2023-06-22T03:19:55;95484.13;;;19.22;84.41
6423;BME280;3244;42.708;23.288;2023-06-22T03:22:21;95488.06;;;19.27;83.74
6423;BME280;3244;42.708;23.288;2023-06-22T03:24:48;95490.16;;;19.35;83.22
6423;BME280;3244;42.708;23.288;2023-06-22T03:27:16;95483.53;;;19.45;82.74
6423;BME280;3244;42.708;23.288;2023-06-22T03:29:43;95483.19;;;19.51;82.55
6423;BME280;3244;42.708;23.288;2023-06-22T03:32:10;95483.41;;;19.75;82.06
6423;BME280;3244;42.708;23.288;2023-06-22T03:34:37;95484.28;;;20.42;79.57
6423;BME280;3244;42.708;23.288;2023-06-22T03:37:04;95496.84;;;21.73;74.20
6423;BME280;3244;42.708;23.288;2023-06-22T03:39:31;95496.44;;;23.20;68.13
6423;BME280;3244;42.708;23.288;2023-06-22T03:41:58;95501.00;;;24.37;62.12
6423;BME280;3244;42.708;23.288;2023-06-22T03:44:26;95490.63;;;25.21;59.36
6423;BME280;3244;42.708;23.288;2023-06-22T03:46:52;95495.78;;;25.82;57.46
6423;BME280;3244;42.708;23.288;2023-06-22T03:49:19;95498.03;;;26.15;56.05
6423;BME280;3244;42.708;23.288;2023-06-22T03:51:45;95512.31;;;26.21;55.66
6423;BME280;3244;42.708;23.288;2023-06-22T03:54:12;95514.03;;;26.01;55.85
6423;BME280;3244;42.708;23.288;2023-06-22T03:56:39;95509.03;;;25.38;57.43
6423;BME280;3244;42.708;23.288;2023-06-22T03:59:06;95504.63;;;24.67;59.66
6423;BME280;3244;42.708;23.288;2023-06-22T04:01:33;95511.25;;;23.96;61.73
6423;BME280;3244;42.708;23.288;2023-06-22T04:04:00;95517.28;;;23.52;62.98
6423;BME280;3244;42.708;23.288;2023-06-22T04:06:27;95516.47;;;23.29;64.33
6423;BME280;3244;42.708;23.288;2023-06-22T04:08:53;95515.03;;;23.02;65.34
6423;BME280;3244;42.708;23.288;2023-06-22T04:11:20;95493.78;;;22.86;66.08
6423;BME280;3244;42.708;23.288;2023-06-22T04:13:47;95487.94;;;23.06;65.63
6423;BME280;3244;42.708;23.288;2023-06-22T04:16:14;95479.00;;;22.99;65.60
6423;BME280;3244;42.708;23.288;2023-06-22T04:18:42;95485.06;;;22.76;66.79
6423;BME280;3244;42.708;23.288;2023-06-22T04:21:09;95488.56;;;22.75;67.20
6423;BME280;3244;42.708;23.288;2023-06-22T04:23:36;95464.94;;;22.91;66.21
6423;BME280;3244;42.708;23.288;2023-06-22T04:26:03;95475.47;;;23.00;65.95
6423;BME280;3244;42.708;23.288;2023-06-22T04:28:29;95479.34;;;23.17;65.05
6423;BME280;3244;42.708;23.288;2023-06-22T04:31:00;95477.56;;;23.18;65.56
6423;BME280;3244;42.708;23.288;2023-06-22T04:33:27;95478.50;;;23.50;65.08
6423;BME280;3244;42.708;23.288;2023-06-22T04:35:56;95485.00;;;24.10;62.78
6423;BME280;3244;42.708;23.288;2023-06-22T04:38:23;95489.28;;;24.64;61.39
6423;BME280;3244;42.708;23.288;2023-06-22T04:40:50;95479.50;;;25.19;60.06
6423;BME280;3244;42.708;23.288;2023-06-22T04:43:18;95485.63;;;25.79;58.53
6423;BME280;3244;42.708;23.288;2023-06-22T04:45:45;95491.91;;;26.35;56.51
6423;BME280;3244;42.708;23.288;2023-06-22T04:48:12;95491.16;;;26.91;55.09
6423;BME280;3244;42.708;23.288;2023-06-22T04:50:41;95495.03;;;27.43;52.84
6423;BME280;3244;42.708;23.288;2023-06-22T04:53:11;95486.78;;;27.75;51.63
6423;BME280;3244;42.708;23.288;2023-06-22T04:55:38;95496.22;;;27.86;51.47
6423;BME280;3244;42.708;23.288;2023-06-22T04:58:07;95500.88;;;28.10;50.97
6423;BME280;3244;42.708;23.288;2023-06-22T05:00:34;95495.69;;;28.46;50.07
6423;BME280;3244;42.708;23.288;2023-06-22T05:03:02;95493.06;;;28.81;49.23
6423;BME280;3244;42.708;23.288;2023-06-22T05:05:28;95495.28;;;29.20;48.55
6423;BME280;3244;42.708;23.288;2023-06-22T05:07:57;95476.06;;;29.63;47.26
6423;BME280;3244;42.708;23.288;2023-06-22T05:10:27;95490.19;;;30.53;44.89
6423;BME280;3244;42.708;23.288;2023-06-22T05:12:53;95488.59;;;30.92;44.56
6423;BME280;3244;42.708;23.288;2023-06-22T05:15:20;95486.09;;;30.99;43.10
6423;BME280;3244;42.708;23.288;2023-06-22T05:17:48;95492.47;;;30.48;44.18
6423;BME280;3244;42.708;23.288;2023-06-22T05:20:15;95496.91;;;29.81;45.89
6423;BME280;3244;42.708;23.288;2023-06-22T05:22:44;95494.34;;;29.29;46.49
6423;BME280;3244;42.708;23.288;2023-06-22T05:25:11;95499.84;;;28.74;47.17
6423;BME280;3244;42.708;23.288;2023-06-22T05:27:39;95497.72;;;27.89;50.11
6423;BME280;3244;42.708;23.288;2023-06-22T05:30:07;95500.13;;;27.35;51.83
6423;BME280;3244;42.708;23.288;2023-06-22T05:32:34;95505.72;;;27.03;53.17
6423;BME280;3244;42.708;23.288;2023-06-22T05:35:01;95499.31;;;26.69;54.08
6423;BME280;3244;42.708;23.288;2023-06-22T05:37:28;95509.59;;;26.61;54.48
6423;BME280;3244;42.708;23.288;2023-06-22T05:39:55;95512.16;;;26.80;54.05
6423;BME280;3244;42.708;23.288;2023-06-22T05:42:22;95517.16;;;27.30;52.72
6423;BME280;3244;42.708;23.288;2023-06-22T05:44:52;95510.53;;;27.82;50.88
6423;BME280;3244;42.708;23.288;2023-06-22T05:47:19;95516.25;;;28.13;50.18
6423;BME280;3244;42.708;23.288;2023-06-22T05:49:46;95512.72;;;28.85;48.70
6423;BME280;3244;42.708;23.288;2023-06-22T05:52:12;95519.19;;;30.19;45.10
6423;BME280;3244;42.708;23.288;2023-06-22T05:54:39;95516.97;;;30.89;43.43
6423;BME280;3244;42.708;23.288;2023-06-22T05:57:07;95523.66;;;31.32;42.75
6423;BME280;3244;42.708;23.288;2023-06-22T05:59:33;95521.34;;;31.37;41.85
6423;BME280;3244;42.708;23.288;2023-06-22T06:02:02;95512.19;;;31.80;41.93
6423;BME280;3244;42.708;23.288;2023-06-22T06:04:28;95512.72;;;31.75;40.82
6423;BME280;3244;42.708;23.288;2023-06-22T06:06:55;95511.38;;;30.84;41.81
6423;BME280;3244;42.708;23.288;2023-06-22T06:09:22;95505.63;;;30.56;43.93
6423;BME280;3244;42.708;23.288;2023-06-22T06:11:49;95508.91;;;31.23;42.75
6423;BME280;3244;42.708;23.288;2023-06-22T06:14:15;95505.91;;;32.28;40.62
6423;BME280;3244;42.708;23.288;2023-06-22T06:16:42;95504.81;;;33.43;37.82
6423;BME280;3244;42.708;23.288;2023-06-22T06:19:10;95509.69;;;35.96;33.14
6423;BME280;3244;42.708;23.288;2023-06-22T06:21:37;95498.78;;;38.41;30.11
6423;BME280;3244;42.708;23.288;2023-06-22T06:24:04;95479.28;;;40.98;26.65
6423;BME280;3244;42.708;23.288;2023-06-22T06:26:31;95490.03;;;43.49;23.46
6423;BME280;3244;42.708;23.288;2023-06-22T06:29:00;95486.25;;;45.50;21.17
6423;BME280;3244;42.708;23.288;2023-06-22T06:31:27;95493.19;;;47.17;19.17
6423;BME280;3244;42.708;23.288;2023-06-22T06:33:54;95492.06;;;47.58;19.25
6423;BME280;3244;42.708;23.288;2023-06-22T06:36:22;95480.81;;;47.21;18.98
6423;BME280;3244;42.708;23.288;2023-06-22T06:38:49;95479.19;;;47.50;18.92
6423;BME280;3244;42.708;23.288;2023-06-22T06:41:16;95474.22;;;48.42;18.33
6423;BME280;3244;42.708;23.288;2023-06-22T06:43:43;95468.69;;;48.13;18.08
6423;BME280;3244;42.708;23.288;2023-06-22T06:46:09;95478.47;;;45.54;19.44
6423;BME280;3244;42.708;23.288;2023-06-22T06:48:36;95467.94;;;43.59;22.13
6423;BME280;3244;42.708;23.288;2023-06-22T06:51:03;95463.06;;;42.38;23.57
6423;BME280;3244;42.708;23.288;2023-06-22T06:53:31;95460.91;;;42.07;24.07
6423;BME280;3244;42.708;23.288;2023-06-22T06:55:58;95460.97;;;43.58;22.54
6423;BME280;3244;42.708;23.288;2023-06-22T06:58:24;95457.22;;;45.47;20.69
6423;BME280;3244;42.708;23.288;2023-06-22T07:00:51;95463.53;;;46.40;20.34
6423;BME280;3244;42.708;23.288;2023-06-22T07:03:17;95464.66;;;47.00;19.37
6423;BME280;3244;42.708;23.288;2023-06-22T07:05:44;95467.78;;;47.79;18.68
6423;BME280;3244;42.708;23.288;2023-06-22T07:08:11;95460.97;;;49.48;17.69
6423;BME280;3244;42.708;23.288;2023-06-22T07:10:39;95458.22;;;50.19;17.26
6423;BME280;3244;42.708;23.288;2023-06-22T07:13:05;95461.50;;;50.16;16.48
6423;BME280;3244;42.708;23.288;2023-06-22T07:15:32;95457.72;;;49.98;16.84
6423;BME280;3244;42.708;23.288;2023-06-22T07:17:59;95459.06;;;50.38;16.52
6423;BME280;3244;42.708;23.288;2023-06-22T07:20:25;95462.94;;;50.70;16.23
6423;BME280;3244;42.708;23.288;2023-06-22T07:22:52;95453.03;;;50.98;15.99
6423;BME280;3244;42.708;23.288;2023-06-22T07:25:19;95459.56;;;51.71;15.29
6423;BME280;3244;42.708;23.288;2023-06-22T07:27:57;95462.19;;;51.16;15.73
6423;BME280;3244;42.708;23.288;2023-06-22T07:30:24;95459.75;;;51.60;15.89
6423;BME280;3244;42.708;23.288;2023-06-22T07:32:52;95457.34;;;51.86;15.40
6423;BME280;3244;42.708;23.288;2023-06-22T07:35:19;95457.84;;;51.75;15.58
6423;BME280;3244;42.708;23.288;2023-06-22T07:37:45;95462.25;;;52.84;14.92
6423;BME280;3244;42.708;23.288;2023-06-22T07:40:12;95462.72;;;52.27;15.26
6423;BME280;3244;42.708;23.288;2023-06-22T07:42:39;95465.38;;;51.91;15.46
6423;BME280;3244;42.708;23.288;2023-06-22T07:45:08;95466.78;;;50.83;15.85
6423;BME280;3244;42.708;23.288;2023-06-22T07:47:35;95458.69;;;50.26;16.41
6423;BME280;3244;42.708;23.288;2023-06-22T07:50:03;95460.47;;;48.44;17.82
6423;BME280;3244;42.708;23.288;2023-06-22T07:52:30;95459.78;;;45.79;20.09
6423;BME280;3244;42.708;23.288;2023-06-22T07:54:57;95464.41;;;43.53;22.16
6423;BME280;3244;42.708;23.288;2023-06-22T07:57:23;95457.63;;;42.33;23.65
6423;BME280;3244;42.708;23.288;2023-06-22T07:59:57;95459.34;;;40.48;25.47
6423;BME280;3244;42.708;23.288;2023-06-22T08:02:25;95451.81;;;38.98;28.27
6423;BME280;3244;42.708;23.288;2023-06-22T08:04:52;95451.59;;;38.75;29.09
6423;BME280;3244;42.708;23.288;2023-06-22T08:07:18;95447.75;;;40.95;26.62
6423;BME280;3244;42.708;23.288;2023-06-22T08:09:47;95440.28;;;44.40;22.11
6423;BME280;3244;42.708;23.288;2023-06-22T08:12:15;95439.03;;;45.59;21.36
6423;BME280;3244;42.708;23.288;2023-06-22T08:14:43;95436.75;;;44.67;21.50
6423;BME280;3244;42.708;23.288;2023-06-22T08:17:10;95433.06;;;43.70;22.56
6423;BME280;3244;42.708;23.288;2023-06-22T08:19:39;95436.22;;;44.97;21.47
6423;BME280;3244;42.708;23.288;2023-06-22T08:22:06;95440.13;;;46.31;20.74
6423;BME280;3244;42.708;23.288;2023-06-22T08:24:32;95429.41;;;48.02;19.28
6423;BME280;3244;42.708;23.288;2023-06-22T08:26:59;95429.44;;;48.80;18.22
6423;BME280;3244;42.708;23.288;2023-06-22T08:29:26;95425.97;;;49.09;17.64
6423;BME280;3244;42.708;23.288;2023-06-22T08:31:54;95427.06;;;50.03;17.01
6423;BME280;3244;42.708;23.288;2023-06-22T08:34:21;95426.06;;;49.51;17.66
6423;BME280;3244;42.708;23.288;2023-06-22T08:36:51;95428.78;;;48.25;18.41
6423;BME280;3244;42.708;23.288;2023-06-22T08:39:18;95429.69;;;47.21;19.49
6423;BME280;3244;42.708;23.288;2023-06-22T08:41:45;95431.34;;;45.31;21.61
6423;BME280;3244;42.708;23.288;2023-06-22T08:44:12;95438.31;;;44.04;22.43
6423;BME280;3244;42.708;23.288;2023-06-22T08:46:39;95434.13;;;42.47;24.00
6423;BME280;3244;42.708;23.288;2023-06-22T08:49:06;95427.88;;;42.13;24.96
6423;BME280;3244;42.708;23.288;2023-06-22T08:51:33;95427.59;;;42.26;24.57
6423;BME280;3244;42.708;23.288;2023-06-22T08:54:01;95417.16;;;44.61;21.95
6423;BME280;3244;42.708;23.288;2023-06-22T08:56:28;95414.31;;;46.25;20.33
6423;BME280;3244;42.708;23.288;2023-06-22T08:58:54;95410.72;;;47.56;19.42
6423;BME280;3244;42.708;23.288;2023-06-22T09:01:21;95405.72;;;47.99;18.12
6423;BME280;3244;42.708;23.288;2023-06-22T09:03:48;95412.13;;;48.08;18.35
6423;BME280;3244;42.708;23.288;2023-06-22T09:06:19;95410.38;;;49.53;17.05
6423;BME280;3244;42.708;23.288;2023-06-22T09:08:46;95410.50;;;49.43;16.44
6423;BME280;3244;42.708;23.288;2023-06-22T09:11:14;95412.94;;;48.53;16.98
6423;BME280;3244;42.708;23.288;2023-06-22T09:13:41;95411.19;;;47.84;18.32
6423;BME280;3244;42.708;23.288;2023-06-22T09:16:08;95414.63;;;47.04;18.93
6423;BME280;3244;42.708;23.288;2023-06-22T09:18:34;95402.19;;;47.29;19.03
6423;BME280;3244;42.708;23.288;2023-06-22T09:21:01;95408.63;;;47.43;18.67
6423;BME280;3244;42.708;23.288;2023-06-22T09:23:28;95409.25;;;46.79;18.95
6423;BME280;3244;42.708;23.288;2023-06-22T09:25:55;95409.69;;;45.42;20.43
6423;BME280;3244;42.708;23.288;2023-06-22T09:28:23;95410.72;;;44.35;21.72
6423;BME280;3244;42.708;23.288;2023-06-22T09:30:50;95411.78;;;44.34;21.83
6423;BME280;3244;42.708;23.288;2023-06-22T09:33:16;95417.78;;;44.15;21.85
6423;BME280;3244;42.708;23.288;2023-06-22T09:35:45;95416.78;;;43.17;22.62
6423;BME280;3244;42.708;23.288;2023-06-22T09:38:11;95414.72;;;42.23;23.61
6423;BME280;3244;42.708;23.288;2023-06-22T09:40:38;95417.63;;;41.18;25.61
6423;BME280;3244;42.708;23.288;2023-06-22T09:43:05;95413.03;;;40.60;26.09
6423;BME280;3244;42.708;23.288;2023-06-22T09:45:33;95405.34;;;39.44;27.38
6423;BME280;3244;42.708;23.288;2023-06-22T09:48:00;95414.59;;;38.98;28.17
6423;BME280;3244;42.708;23.288;2023-06-22T09:50:26;95404.50;;;37.43;29.98
6423;BME280;3244;42.708;23.288;2023-06-22T09:52:53;95395.81;;;36.30;31.66
6423;BME280;3244;42.708;23.288;2023-06-22T09:55:20;95401.31;;;35.27;33.57
6423;BME280;3244;42.708;23.288;2023-06-22T09:57:47;95398.56;;;34.51;35.17
6423;BME280;3244;42.708;23.288;2023-06-22T10:00:16;95408.63;;;33.69;37.35
6423;BME280;3244;42.708;23.288;2023-06-22T10:02:46;95393.31;;;33.43;37.99
6423;BME280;3244;42.708;23.288;2023-06-22T10:05:13;95389.22;;;33.55;37.66
6423;BME280;3244;42.708;23.288;2023-06-22T10:07:40;95391.97;;;33.03;37.97
6423;BME280;3244;42.708;23.288;2023-06-22T10:10:08;95396.41;;;32.50;40.08
6423;BME280;3244;42.708;23.288;2023-06-22T10:12:35;95394.00;;;32.18;40.77
6423;BME280;3244;42.708;23.288;2023-06-22T10:15:03;95394.38;;;32.15;40.82
6423;BME280;3244;42.708;23.288;2023-06-22T10:17:29;95381.50;;;31.97;41.57
6423;BME280;3244;42.708;23.288;2023-06-22T10:19:57;95384.19;;;31.89;41.95
6423;BME280;3244;42.708;23.288;2023-06-22T10:22:24;95390.34;;;31.73;41.86
6423;BME280;3244;42.708;23.288;2023-06-22T10:24:51;95384.75;;;31.76;40.65
6423;BME280;3244;42.708;23.288;2023-06-22T10:27:17;95389.81;;;31.86;41.46
6423;BME280;3244;42.708;23.288;2023-06-22T10:29:44;95383.28;;;31.73;41.76
6423;BME280;3244;42.708;23.288;2023-06-22T10:32:11;95373.63;;;31.66;41.72
6423;BME280;3244;42.708;23.288;2023-06-22T10:34:37;95371.78;;;31.74;41.27
6423;BME280;3244;42.708;23.288;2023-06-22T10:37:06;95380.09;;;31.55;41.54
6423;BME280;3244;42.708;23.288;2023-06-22T10:39:32;95373.31;;;31.30;41.93
6423;BME280;3244;42.708;23.288;2023-06-22T10:41:59;95377.66;;;31.06;42.32
6423;BME280;3244;42.708;23.288;2023-06-22T10:44:25;95377.72;;;30.82;42.95
6423;BME280;3244;42.708;23.288;2023-06-22T10:46:52;95371.81;;;30.72;42.96
6423;BME280;3244;42.708;23.288;2023-06-22T10:49:19;95362.13;;;30.81;42.21
6423;BME280;3244;42.708;23.288;2023-06-22T10:51:45;95369.19;;;30.72;43.39
6423;BME280;3244;42.708;23.288;2023-06-22T10:54:13;95363.28;;;30.70;43.60
6423;BME280;3244;42.708;23.288;2023-06-22T10:56:43;95367.88;;;30.76;42.98
6423;BME280;3244;42.708;23.288;2023-06-22T10:59:10;95364.66;;;30.66;43.16
6423;BME280;3244;42.708;23.288;2023-06-22T11:01:36;95358.56;;;30.65;43.05
6423;BME280;3244;42.708;23.288;2023-06-22T11:04:03;95359.25;;;30.59;43.28
6423;BME280;3244;42.708;23.288;2023-06-22T11:06:30;95360.69;;;30.45;43.47
6423;BME280;3244;42.708;23.288;2023-06-22T11:08:57;95356.72;;;30.74;43.79
6423;BME280;3244;42.708;23.288;2023-06-22T11:11:25;95364.88;;;30.95;44.61
6423;BME280;3244;42.708;23.288;2023-06-22T11:13:52;95362.72;;;31.07;43.14
6423;BME280;3244;42.708;23.288;2023-06-22T11:16:19;95345.16;;;31.07;42.42
6423;BME280;3244;42.708;23.288;2023-06-22T11:18:45;95347.16;;;30.97;43.01
6423;BME280;3244;42.708;23.288;2023-06-22T11:21:12;95346.53;;;30.87;43.29
6423;BME280;3244;42.708;23.288;2023-06-22T11:23:39;95341.63;;;30.84;42.46
6423;BME280;3244;42.708;23.288;2023-06-22T11:26:05;95348.53;;;30.77;42.17
6423;BME280;3244;42.708;23.288;2023-06-22T11:28:33;95345.88;;;30.85;41.91
6423;BME280;3244;42.708;23.288;2023-06-22T11:31:00;95339.34;;;30.81;42.28
6423;BME280;3244;42.708;23.288;2023-06-22T11:33:27;95341.66;;;30.76;42.59
6423;BME280;3244;42.708;23.288;2023-06-22T11:35:53;95338.91;;;30.61;42.59
6423;BME280;3244;42.708;23.288;2023-06-22T11:38:21;95330.88;;;30.38;43.38
6423;BME280;3244;42.708;23.288;2023-06-22T11:40:48;95337.44;;;30.26;43.18
6423;BME280;3244;42.708;23.288;2023-06-22T11:43:15;95346.47;;;30.16;43.29
6423;BME280;3244;42.708;23.288;2023-06-22T11:45:43;95344.34;;;30.11;44.31
6423;BME280;3244;42.708;23.288;2023-06-22T11:48:09;95330.84;;;29.98;44.90
6423;BME280;3244;42.708;23.288;2023-06-22T11:50:36;95331.53;;;29.84;44.69
6423;BME280;3244;42.708;23.288;2023-06-22T11:53:03;95336.06;;;29.57;45.66
6423;BME280;3244;42.708;23.288;2023-06-22T11:55:29;95329.00;;;29.50;46.94
6423;BME280;3244;42.708;23.288;2023-06-22T11:57:57;95340.78;;;29.45;46.89
6423;BME280;3244;42.708;23.288;2023-06-22T12:00:28;95342.75;;;29.52;47.12
6423;BME280;3244;42.708;23.288;2023-06-22T12:02:56;95340.47;;;29.49;47.60
6423;BME280;3244;42.708;23.288;2023-06-22T12:05:23;95345.84;;;29.47;47.82
6423;BME280;3244;42.708;23.288;2023-06-22T12:07:52;95341.16;;;29.59;47.33
6423;BME280;3244;42.708;23.288;2023-06-22T12:10:20;95345.25;;;29.61;47.96
6423;BME280;3244;42.708;23.288;2023-06-22T12:12:47;95354.06;;;29.52;48.40
6423;BME280;3244;42.708;23.288;2023-06-22T12:15:13;95358.56;;;29.34;49.30
6423;BME280;3244;42.708;23.288;2023-06-22T12:17:40;95360.75;;;29.04;50.54
6423;BME280;3244;42.708;23.288;2023-06-22T12:20:09;95362.94;;;28.83;54.06
6423;BME280;3244;42.708;23.288;2023-06-22T12:22:36;95359.47;;;28.31;56.29
6423;BME280;3244;42.708;23.288;2023-06-22T12:25:04;95356.19;;;28.11;61.42
6423;BME280;3244;42.708;23.288;2023-06-22T12:27:31;95359.47;;;27.77;63.17
6423;BME280;3244;42.708;23.288;2023-06-22T12:29:57;95369.25;;;27.58;62.84
6423;BME280;3244;42.708;23.288;2023-06-22T12:32:24;95381.19;;;27.33;64.03
6423;BME280;3244;42.708;23.288;2023-06-22T12:34:51;95378.69;;;27.14;64.58
6423;BME280;3244;42.708;23.288;2023-06-22T12:37:19;95376.63;;;27.07;65.61
6423;BME280;3244;42.708;23.288;2023-06-22T12:39:46;95385.03;;;27.01;64.39
6423;BME280;3244;42.708;23.288;2023-06-22T12:42:12;95384.13;;;26.83;62.41
6423;BME280;3244;42.708;23.288;2023-06-22T12:44:39;95372.38;;;26.69;63.86
6423;BME280;3244;42.708;23.288;2023-06-22T12:47:06;95386.09;;;26.71;62.63
6423;BME280;3244;42.708;23.288;2023-06-22T12:49:33;95387.13;;;26.88;61.97
6423;BME280;3244;42.708;23.288;2023-06-22T12:52:00;95396.59;;;26.89;61.70
6423;BME280;3244;42.708;23.288;2023-06-22T12:54:28;95401.66;;;27.00;59.16
6423;BME280;3244;42.708;23.288;2023-06-22T12:56:56;95395.34;;;26.93;61.03
6423;BME280;3244;42.708;23.288;2023-06-22T12:59:22;95404.06;;;26.65;60.76
6423;BME280;3244;42.708;23.288;2023-06-22T13:01:49;95403.44;;;26.43;61.90
6423;BME280;3244;42.708;23.288;2023-06-22T13:04:16;95403.66;;;26.60;61.38
6423;BME280;3244;42.708;23.288;2023-06-22T13:06:43;95397.03;;;26.75;61.53
6423;BME280;3244;42.708;23.288;2023-06-22T13:09:13;95394.78;;;26.99;60.02
6423;BME280;3244;42.708;23.288;2023-06-22T13:11:41;95390.06;;;27.13;60.10